Kilbourne, Ohio
Current Conditions -  °F | °C
As of 4:16 AM on Friday 24 Oct 2014 (Local Time) from KDLZ Reporting Station
Haze Haze  
Wind Chill: 34°   Ceiling: 700
Heat Index: 34°   Visibility: 1.2mi
Dew Point: 34°   Wind: 0mph
Humidity: 100%   Direction: NA
Pressure: 30.12"   Gusts: NA
Location:  40.33°N, 82.96°W
Report Text: KDLZ 240816Z AUTO 00000KT 1 1/4SM BR VV007 01/01 A3012 RMK AO2
Loading
Personal Weather Stations






























Interactive Weather Map
Tropical Storm Tracking
New forecast layout! Learn more

10-Day Weather Forecast

Advertisements
Track Severe Weather on mobile